createdAt,value
2017-06-22T00:01:34.752Z,49.60
2017-06-22T00:04:03.837Z,49.50
2017-06-22T00:06:32.081Z,49.40
2017-06-22T00:09:00.322Z,49.30
2017-06-22T00:11:28.578Z,49.60
2017-06-22T00:13:57.586Z,50.40
2017-06-22T00:16:26.502Z,50.40
2017-06-22T00:18:54.764Z,50.10
2017-06-22T00:21:23.037Z,50.20
2017-06-22T00:23:51.328Z,50.30
2017-06-22T00:26:19.581Z,50.10
2017-06-22T00:28:47.813Z,50.10
2017-06-22T00:31:16.846Z,50.70
2017-06-22T00:33:45.085Z,50.00
2017-06-22T00:36:13.414Z,50.10
2017-06-22T00:38:41.669Z,49.90
2017-06-22T00:41:10.118Z,50.00
2017-06-22T00:43:38.357Z,49.80
2017-06-22T00:46:06.596Z,50.00
2017-06-22T00:48:34.853Z,50.10
2017-06-22T00:51:03.866Z,50.10
2017-06-22T00:53:32.126Z,50.10
2017-06-22T00:56:00.360Z,50.10
2017-06-22T00:58:28.616Z,50.30
2017-06-22T01:00:56.878Z,50.50
2017-06-22T01:03:25.138Z,50.50
2017-06-22T01:05:53.385Z,50.50
2017-06-22T01:11:42.321Z,50.70
2017-06-22T01:14:10.599Z,50.90
2017-06-22T01:16:38.870Z,50.90
2017-06-22T01:19:07.163Z,51.00
2017-06-22T01:21:35.618Z,51.10
2017-06-22T01:24:03.905Z,51.20
2017-06-22T01:26:32.223Z,51.40
2017-06-22T01:29:01.379Z,52.10
2017-06-22T01:31:29.888Z,51.50
2017-06-22T01:33:58.190Z,51.50
2017-06-22T01:36:26.613Z,51.80
2017-06-22T01:38:55.017Z,52.10
2017-06-22T01:41:23.608Z,52.10
2017-06-22T01:43:51.949Z,52.30
2017-06-22T01:46:20.280Z,52.40
2017-06-22T01:48:49.339Z,52.30
2017-06-22T01:51:17.921Z,52.20
2017-06-22T01:53:47.334Z,52.30
2017-06-22T01:56:15.644Z,52.20
2017-06-22T01:58:44.168Z,52.50
2017-06-22T02:01:12.488Z,53.00
2017-06-22T02:03:40.933Z,52.90
2017-06-22T02:06:09.351Z,52.90
2017-06-22T02:08:38.463Z,52.60
2017-06-22T02:11:06.761Z,53.00
2017-06-22T02:13:35.253Z,53.10
2017-06-22T02:16:03.597Z,53.10
2017-06-22T02:18:32.074Z,53.10
2017-06-22T02:21:00.693Z,53.30
2017-06-22T02:23:29.007Z,53.30
2017-06-22T02:25:58.313Z,53.40
2017-06-22T02:28:26.664Z,53.40
2017-06-22T02:30:55.030Z,53.50
2017-06-22T02:33:23.493Z,53.60
2017-06-22T02:35:51.791Z,53.80
2017-06-22T02:38:20.174Z,54.20
2017-06-22T02:40:48.766Z,54.40
2017-06-22T02:43:17.939Z,54.60
2017-06-22T02:45:46.352Z,54.50
2017-06-22T02:48:14.583Z,54.80
2017-06-22T02:50:42.917Z,54.90
2017-06-22T02:53:12.706Z,54.70
2017-06-22T02:55:40.996Z,54.70
2017-06-22T02:58:10.084Z,55.00
2017-06-22T03:00:38.342Z,55.00
2017-06-22T03:03:06.787Z,55.20
2017-06-22T03:05:35.140Z,55.60
2017-06-22T03:08:10.522Z,55.70
2017-06-22T03:10:39.289Z,56.10
2017-06-22T03:13:07.572Z,56.60
2017-06-22T03:15:36.169Z,56.90
2017-06-22T03:18:05.261Z,57.20
2017-06-22T03:20:33.603Z,57.20
2017-06-22T03:23:01.917Z,57.00
2017-06-22T03:25:31.024Z,57.10
2017-06-22T03:27:59.277Z,57.10
2017-06-22T03:30:27.603Z,57.00
2017-06-22T03:32:56.030Z,56.70
2017-06-22T03:35:24.332Z,56.70
2017-06-22T03:37:52.593Z,56.60
2017-06-22T03:40:20.915Z,56.10
2017-06-22T03:42:49.202Z,56.60
2017-06-22T03:45:17.472Z,56.30
2017-06-22T03:47:45.870Z,56.30
2017-06-22T03:50:14.223Z,56.20
2017-06-22T03:52:42.578Z,56.20
2017-06-22T03:55:11.636Z,56.20
2017-06-22T03:57:40.044Z,56.10
2017-06-22T04:00:08.333Z,56.20
2017-06-22T04:02:36.672Z,56.20
2017-06-22T04:05:05.789Z,56.50
2017-06-22T04:07:34.265Z,56.40
2017-06-22T04:10:02.559Z,56.40
2017-06-22T04:12:31.686Z,56.90
2017-06-22T04:15:00.067Z,56.90
2017-06-22T04:17:28.481Z,57.10
2017-06-22T04:19:57.045Z,57.10
2017-06-22T04:22:25.403Z,57.20
2017-06-22T04:24:53.835Z,57.50
2017-06-22T04:27:22.326Z,57.40
2017-06-22T04:29:51.528Z,57.70
2017-06-22T04:32:20.573Z,58.20
2017-06-22T04:34:48.844Z,58.20
2017-06-22T04:37:17.146Z,58.20
2017-06-22T04:39:45.446Z,58.20
2017-06-22T04:42:14.034Z,58.60
2017-06-22T04:44:43.238Z,58.40
2017-06-22T04:47:11.530Z,58.30
2017-06-22T04:49:39.841Z,58.30
2017-06-22T04:52:08.160Z,58.20
2017-06-22T04:54:36.461Z,58.00
2017-06-22T04:57:04.776Z,57.70
2017-06-22T04:59:33.080Z,57.60
2017-06-22T05:02:02.179Z,58.10
2017-06-22T05:04:31.231Z,57.20
2017-06-22T05:06:59.539Z,57.60
2017-06-22T05:09:28.032Z,56.70
2017-06-22T05:11:56.368Z,55.80
2017-06-22T05:14:24.894Z,54.80
2017-06-22T05:16:53.188Z,54.00
2017-06-22T05:19:22.250Z,52.40
2017-06-22T05:21:51.450Z,51.60
2017-06-22T05:24:20.547Z,51.10
2017-06-22T05:26:48.821Z,51.10
2017-06-22T05:29:17.081Z,51.70
2017-06-22T05:31:45.449Z,51.60
2017-06-22T05:34:13.949Z,51.60
2017-06-22T05:36:42.209Z,51.50
2017-06-22T05:39:10.576Z,51.60
2017-06-22T05:41:38.877Z,51.60
2017-06-22T05:44:08.083Z,51.60
2017-06-22T05:46:36.415Z,51.60
2017-06-22T05:49:04.717Z,51.30
2017-06-22T05:51:33.053Z,51.50
2017-06-22T05:54:01.362Z,51.00
2017-06-22T05:56:29.777Z,50.60
2017-06-22T05:58:59.032Z,49.70
2017-06-22T06:01:27.748Z,49.60
2017-06-22T06:03:57.011Z,48.00
2017-06-22T06:06:25.340Z,48.00
2017-06-22T06:08:54.391Z,45.80
2017-06-22T06:11:22.759Z,45.80
2017-06-22T06:13:51.199Z,44.50
2017-06-22T06:16:20.198Z,43.20
2017-06-22T06:18:49.605Z,42.60
2017-06-22T06:21:17.984Z,40.70
2017-06-22T06:23:46.479Z,39.70
2017-06-22T06:26:14.889Z,39.00
2017-06-22T06:28:43.266Z,38.70
2017-06-22T06:31:11.679Z,38.10
2017-06-22T06:33:40.754Z,36.60
2017-06-22T06:36:09.143Z,36.60
2017-06-22T06:38:38.202Z,35.50
2017-06-22T06:41:06.736Z,35.50
2017-06-22T06:43:35.061Z,35.00
2017-06-22T06:46:03.447Z,35.50
2017-06-22T06:48:31.737Z,36.00
2017-06-22T06:51:00.887Z,37.20
2017-06-22T06:53:29.137Z,37.20
2017-06-22T06:55:58.322Z,40.10
2017-06-22T06:58:27.354Z,40.90
2017-06-22T07:00:55.674Z,40.90
2017-06-22T07:03:24.064Z,42.10
2017-06-22T07:05:53.339Z,42.60
2017-06-22T07:08:22.057Z,42.60
2017-06-22T07:10:50.585Z,43.50
2017-06-22T07:13:19.047Z,43.30
2017-06-22T07:15:47.482Z,44.40
2017-06-22T07:18:15.760Z,43.70
2017-06-22T07:20:44.073Z,44.20
2017-06-22T07:23:12.523Z,44.20
2017-06-22T07:25:40.856Z,44.40
2017-06-22T07:28:09.143Z,44.50
2017-06-22T07:30:37.554Z,44.10
2017-06-22T07:33:06.950Z,44.30
2017-06-22T07:35:36.383Z,42.90
2017-06-22T07:38:05.582Z,42.00
2017-06-22T07:40:34.047Z,42.00
2017-06-22T07:43:02.490Z,41.60
2017-06-22T07:45:31.103Z,41.20
2017-06-22T07:47:59.484Z,40.50
2017-06-22T07:50:28.703Z,40.40
2017-06-22T07:52:57.013Z,40.30
2017-06-22T07:55:25.331Z,39.50
2017-06-22T07:57:54.383Z,41.20
2017-06-22T08:00:22.799Z,41.10
2017-06-22T08:02:51.844Z,40.90
2017-06-22T08:05:20.161Z,40.90
2017-06-22T08:07:48.497Z,39.90
2017-06-22T08:10:16.887Z,40.40
2017-06-22T08:12:45.445Z,40.10
2017-06-22T08:15:13.853Z,40.70
2017-06-22T08:17:42.175Z,39.00
2017-06-22T08:20:10.581Z,38.30
2017-06-22T08:22:39.018Z,38.80
2017-06-22T08:25:07.375Z,38.20
2017-06-22T08:27:35.972Z,38.30
2017-06-22T08:30:04.557Z,38.50
2017-06-22T08:32:33.150Z,38.30
2017-06-22T08:35:02.223Z,39.50
2017-06-22T08:37:30.517Z,39.40
2017-06-22T08:39:59.589Z,39.10
2017-06-22T08:42:28.866Z,37.80
2017-06-22T08:44:57.118Z,37.80
2017-06-22T08:47:25.512Z,38.30
2017-06-22T08:49:54.018Z,38.60
2017-06-22T08:52:22.335Z,38.80
2017-06-22T08:54:51.392Z,37.80
2017-06-22T08:57:19.828Z,37.70
2017-06-22T08:59:48.180Z,37.20
2017-06-22T09:02:17.206Z,37.80
2017-06-22T09:04:45.787Z,37.70
2017-06-22T09:07:14.322Z,38.10
2017-06-22T09:09:42.655Z,36.50
2017-06-22T09:12:11.017Z,37.00
2017-06-22T09:14:39.400Z,36.10
2017-06-22T09:17:07.733Z,36.70
2017-06-22T09:19:36.771Z,35.40
2017-06-22T09:22:05.153Z,35.50
2017-06-22T09:24:34.543Z,35.50
2017-06-22T09:27:02.992Z,34.90
2017-06-22T09:29:32.094Z,34.90
2017-06-22T09:32:01.621Z,34.80
2017-06-22T09:34:29.979Z,34.80
2017-06-22T09:36:58.268Z,34.50
2017-06-22T09:39:26.713Z,34.70
2017-06-22T09:41:55.018Z,34.00
2017-06-22T09:44:23.459Z,34.40
2017-06-22T09:46:51.765Z,34.20
2017-06-22T09:49:20.326Z,33.70
2017-06-22T09:51:48.554Z,33.90
2017-06-22T09:54:17.306Z,33.00
2017-06-22T09:56:46.559Z,32.90
2017-06-22T09:59:14.897Z,32.90
2017-06-22T10:01:43.441Z,32.60
2017-06-22T10:04:11.944Z,32.10
2017-06-22T10:06:40.468Z,31.90
2017-06-22T10:09:08.797Z,32.40
2017-06-22T10:11:37.257Z,32.10
2017-06-22T10:14:05.545Z,32.10
2017-06-22T10:16:34.650Z,33.70
2017-06-22T10:19:03.945Z,34.80
2017-06-22T10:21:32.991Z,34.40
2017-06-22T10:24:01.616Z,34.30
2017-06-22T10:26:29.891Z,34.80
2017-06-22T10:28:59.282Z,32.40
2017-06-22T10:31:27.714Z,32.40
2017-06-22T10:33:56.126Z,32.60
2017-06-22T10:36:24.616Z,31.10
2017-06-22T10:38:52.946Z,30.00
2017-06-22T10:41:21.425Z,28.20
2017-06-22T10:43:49.681Z,26.90
2017-06-22T10:46:18.164Z,26.20
2017-06-22T10:48:46.644Z,25.90
2017-06-22T10:51:14.994Z,25.90
2017-06-22T10:53:43.498Z,26.40
2017-06-22T10:56:12.327Z,25.50
2017-06-22T10:58:40.693Z,25.00
2017-06-22T11:01:09.098Z,25.10
2017-06-22T11:03:37.349Z,24.80
2017-06-22T11:06:05.670Z,25.10
2017-06-22T11:08:34.734Z,24.10
2017-06-22T11:11:02.998Z,24.00
2017-06-22T11:13:31.427Z,23.70
2017-06-22T11:15:59.662Z,23.60
2017-06-22T11:18:28.019Z,23.80
2017-06-22T11:20:56.315Z,23.10
2017-06-22T11:23:24.559Z,23.10
2017-06-22T11:25:52.846Z,23.10
2017-06-22T11:28:21.181Z,22.00
2017-06-22T11:30:50.320Z,21.70
2017-06-22T11:33:18.563Z,21.70
2017-06-22T11:35:46.928Z,22.20
2017-06-22T11:38:15.956Z,22.10
2017-06-22T11:40:44.195Z,22.10
2017-06-22T11:43:13.229Z,22.70
2017-06-22T11:45:41.481Z,22.60
2017-06-22T11:48:09.800Z,22.80
2017-06-22T11:50:38.041Z,23.30
2017-06-22T11:53:06.385Z,24.20
2017-06-22T11:55:35.431Z,25.50
2017-06-22T11:58:04.307Z,25.50
2017-06-22T12:00:32.591Z,26.40
2017-06-22T12:03:00.853Z,26.90
2017-06-22T12:05:29.148Z,27.50
2017-06-22T12:07:57.425Z,28.00
2017-06-22T12:10:25.677Z,28.40
2017-06-22T12:12:53.992Z,28.80
2017-06-22T12:15:22.350Z,29.20
2017-06-22T12:17:50.606Z,29.20
2017-06-22T12:20:18.858Z,30.10
2017-06-22T12:22:47.877Z,30.00
2017-06-22T12:25:16.189Z,30.00
2017-06-22T12:27:44.561Z,30.60
2017-06-22T12:30:12.836Z,30.70
2017-06-22T12:32:41.201Z,31.00
2017-06-22T12:35:09.441Z,31.30
2017-06-22T12:37:37.757Z,31.90
2017-06-22T12:40:06.003Z,31.40
2017-06-22T12:42:34.333Z,31.30
2017-06-22T12:45:02.623Z,30.90
2017-06-22T12:47:30.957Z,31.00
2017-06-22T12:49:59.275Z,31.50
2017-06-22T12:52:27.520Z,31.90
2017-06-22T12:54:55.778Z,32.50
2017-06-22T12:57:24.028Z,32.10
2017-06-22T12:59:52.308Z,32.30
2017-06-22T13:02:20.629Z,31.80
2017-06-22T13:04:48.989Z,32.20
2017-06-22T13:07:17.574Z,32.40
2017-06-22T13:09:45.836Z,32.80
2017-06-22T13:12:14.085Z,33.30
2017-06-22T13:14:42.357Z,33.80
2017-06-22T13:17:10.604Z,33.10
2017-06-22T13:19:38.861Z,32.90
2017-06-22T13:22:07.100Z,33.60
2017-06-22T13:24:35.495Z,33.30
2017-06-22T13:27:03.751Z,34.10
2017-06-22T13:29:32.013Z,33.80
2017-06-22T13:32:00.321Z,34.40
2017-06-22T13:34:28.581Z,34.60
2017-06-22T13:36:56.925Z,35.40
2017-06-22T13:39:25.263Z,34.80
2017-06-22T13:41:53.817Z,34.70
2017-06-22T13:44:22.076Z,34.60
2017-06-22T13:46:50.389Z,35.10
2017-06-22T13:49:18.741Z,34.80
2017-06-22T13:51:47.049Z,35.30
2017-06-22T13:54:15.377Z,35.90
2017-06-22T13:56:43.712Z,35.70
2017-06-22T13:59:11.981Z,36.30
2017-06-22T14:01:40.341Z,36.50
2017-06-22T14:04:08.682Z,36.30
2017-06-22T14:06:37.709Z,36.90
2017-06-22T14:09:05.984Z,36.80
2017-06-22T14:11:34.366Z,36.60
2017-06-22T14:14:02.614Z,36.70
2017-06-22T14:16:30.946Z,37.20
2017-06-22T14:18:59.241Z,37.70
2017-06-22T14:21:28.385Z,38.30
2017-06-22T14:23:56.770Z,38.80
2017-06-22T14:26:25.263Z,38.10
2017-06-22T14:28:53.622Z,38.50
2017-06-22T14:31:21.901Z,38.40
2017-06-22T14:33:50.177Z,38.30
2017-06-22T14:36:18.630Z,39.40
2017-06-22T14:38:46.888Z,41.10
2017-06-22T14:41:15.965Z,45.60
2017-06-22T14:43:45.009Z,46.60
2017-06-22T14:46:13.274Z,45.80
2017-06-22T14:48:41.542Z,46.50
2017-06-22T14:51:09.812Z,48.30
2017-06-22T14:53:38.096Z,48.20
2017-06-22T14:56:06.342Z,49.00
2017-06-22T14:58:35.496Z,49.20
2017-06-22T15:01:03.790Z,49.20
2017-06-22T15:03:32.071Z,49.60
2017-06-22T15:06:00.639Z,48.80
2017-06-22T15:08:29.201Z,49.30
2017-06-22T15:10:57.445Z,48.70
2017-06-22T15:13:25.729Z,48.90
2017-06-22T15:15:53.977Z,49.50
2017-06-22T15:18:23.016Z,49.80
2017-06-22T15:20:51.337Z,49.70
2017-06-22T15:23:20.369Z,49.00
2017-06-22T15:25:48.715Z,49.00
2017-06-22T15:28:16.973Z,48.80
2017-06-22T15:30:45.654Z,48.70
2017-06-22T15:33:14.001Z,49.00
2017-06-22T15:35:42.286Z,49.40
2017-06-22T15:38:10.513Z,49.60
2017-06-22T15:40:38.780Z,49.50
2017-06-22T15:43:07.797Z,49.50
2017-06-22T15:45:36.066Z,48.90
2017-06-22T15:48:04.314Z,48.50
2017-06-22T15:50:33.374Z,47.90
2017-06-22T15:53:01.643Z,48.10
2017-06-22T15:55:30.019Z,48.40
2017-06-22T15:57:58.318Z,48.70
2017-06-22T16:00:27.369Z,52.70
2017-06-22T16:02:55.616Z,52.30
2017-06-22T16:05:24.636Z,55.40
2017-06-22T16:07:52.933Z,55.40
2017-06-22T16:10:21.194Z,55.00
2017-06-22T16:12:49.461Z,55.60
2017-06-22T16:15:17.908Z,55.30
2017-06-22T16:17:46.237Z,55.90
2017-06-22T16:20:14.476Z,54.10
2017-06-22T16:22:42.781Z,53.40
2017-06-22T16:25:11.035Z,49.00
2017-06-22T16:27:39.299Z,44.40
2017-06-22T16:30:08.311Z,50.00
2017-06-22T16:32:36.579Z,49.90
2017-06-22T16:35:04.882Z,48.30
2017-06-22T16:37:33.142Z,48.70
2017-06-22T16:40:01.438Z,54.60
2017-06-22T16:42:29.705Z,54.10
2017-06-22T16:44:58.050Z,53.20
2017-06-22T16:47:26.324Z,53.00
2017-06-22T16:49:55.331Z,53.00
2017-06-22T16:52:23.595Z,53.00
2017-06-22T16:54:51.842Z,54.40
2017-06-22T16:57:20.292Z,56.10
2017-06-22T16:59:48.547Z,49.60
2017-06-22T17:02:16.802Z,48.50
2017-06-22T17:04:45.058Z,50.60
2017-06-22T17:07:13.290Z,53.60
2017-06-22T17:09:41.560Z,52.10
2017-06-22T17:12:09.805Z,56.30
2017-06-22T17:14:38.177Z,57.00
2017-06-22T17:17:06.589Z,57.60
2017-06-22T17:19:34.907Z,56.00
2017-06-22T17:22:03.167Z,57.40
2017-06-22T17:24:31.477Z,58.60
2017-06-22T17:27:00.487Z,59.50
2017-06-22T17:29:28.751Z,59.00
2017-06-22T17:31:57.086Z,59.90
2017-06-22T17:34:25.342Z,61.50
2017-06-22T17:36:53.590Z,62.20
2017-06-22T17:39:21.945Z,61.20
2017-06-22T17:41:51.225Z,63.70
2017-06-22T17:44:19.466Z,62.90
2017-06-22T17:46:47.741Z,63.00
2017-06-22T17:49:17.400Z,60.40
2017-06-22T17:51:46.425Z,62.80
2017-06-22T17:54:14.698Z,62.80
2017-06-22T17:56:42.992Z,60.00
2017-06-22T17:59:11.245Z,61.40
2017-06-22T18:01:39.709Z,58.80
2017-06-22T18:04:08.272Z,58.10
2017-06-22T18:06:36.571Z,59.90
2017-06-22T18:09:04.891Z,60.40
2017-06-22T18:11:33.190Z,60.80
2017-06-22T18:14:01.459Z,60.30
2017-06-22T18:16:29.761Z,60.00
2017-06-22T18:18:59.384Z,58.90
2017-06-22T18:21:27.729Z,58.90
2017-06-22T18:23:56.062Z,58.70
2017-06-22T18:26:24.548Z,58.40
2017-06-22T18:28:52.790Z,57.60
2017-06-22T18:31:21.130Z,57.50
2017-06-22T18:33:49.430Z,56.90
2017-06-22T18:36:17.669Z,56.90
2017-06-22T18:38:46.035Z,56.90
2017-06-22T18:41:14.312Z,57.10
2017-06-22T18:43:42.568Z,57.80
2017-06-22T18:46:10.829Z,57.90
2017-06-22T18:48:39.433Z,57.10
2017-06-22T18:51:07.729Z,56.20
2017-06-22T18:53:36.069Z,56.20
2017-06-22T18:56:04.342Z,56.00
2017-06-22T18:58:32.607Z,55.80
2017-06-22T19:01:00.886Z,54.80
2017-06-22T19:03:29.146Z,55.20
2017-06-22T19:05:57.384Z,54.80
2017-06-22T19:08:26.408Z,55.60
2017-06-22T19:10:54.723Z,55.70
2017-06-22T19:13:22.985Z,54.70
2017-06-22T19:15:51.288Z,55.10
2017-06-22T19:18:19.550Z,55.40
2017-06-22T19:20:47.796Z,55.00
2017-06-22T19:23:16.053Z,54.80
2017-06-22T19:25:44.305Z,55.60
2017-06-22T19:28:13.386Z,58.30
2017-06-22T19:30:41.718Z,58.30
2017-06-22T19:33:09.983Z,59.70
2017-06-22T19:35:38.277Z,59.70
2017-06-22T19:38:06.655Z,59.70
2017-06-22T19:40:34.962Z,60.10
2017-06-22T19:43:03.228Z,59.90
2017-06-22T19:45:31.578Z,60.80
2017-06-22T19:47:59.874Z,61.00
2017-06-22T19:50:28.230Z,59.90
2017-06-22T19:52:56.615Z,60.00
2017-06-22T19:55:24.862Z,58.60
2017-06-22T19:57:53.118Z,58.20
2017-06-22T20:00:22.148Z,57.70
2017-06-22T20:02:50.446Z,57.70
2017-06-22T20:05:18.685Z,58.00
2017-06-22T20:07:47.022Z,58.80
2017-06-22T20:10:15.288Z,58.30
2017-06-22T20:12:43.549Z,58.60
2017-06-22T20:15:11.809Z,58.30
2017-06-22T20:17:40.052Z,58.50
2017-06-22T20:20:08.319Z,59.30
2017-06-22T20:22:37.583Z,59.80
2017-06-22T20:25:05.820Z,59.70
2017-06-22T20:27:34.135Z,60.30
2017-06-22T20:30:02.397Z,60.20
2017-06-22T20:32:30.653Z,60.30
2017-06-22T20:34:58.900Z,60.60
2017-06-22T20:37:27.149Z,60.80
2017-06-22T20:39:55.488Z,60.80
2017-06-22T20:42:23.745Z,61.00
2017-06-22T20:44:52.061Z,61.00
2017-06-22T20:47:20.301Z,61.40
2017-06-22T20:49:48.574Z,61.70
2017-06-22T20:52:16.955Z,61.50
2017-06-22T20:54:45.201Z,61.50
2017-06-22T20:57:14.284Z,61.00
2017-06-22T20:59:43.309Z,61.50
2017-06-22T21:02:11.605Z,61.40
2017-06-22T21:04:39.875Z,61.30
2017-06-22T21:07:08.162Z,60.80
2017-06-22T21:09:36.434Z,60.70
2017-06-22T21:12:04.682Z,60.70
2017-06-22T21:14:32.934Z,60.60
2017-06-22T21:17:01.963Z,62.30
2017-06-22T21:19:30.258Z,62.00
2017-06-22T21:21:58.525Z,62.50
2017-06-22T21:24:26.825Z,61.80
2017-06-22T21:26:55.089Z,61.60
2017-06-22T21:29:23.342Z,60.20
2017-06-22T21:31:51.649Z,58.60
2017-06-22T21:34:20.055Z,59.50
2017-06-22T21:36:48.671Z,61.60
2017-06-22T21:39:16.965Z,62.40
2017-06-22T21:41:45.224Z,62.70
2017-06-22T21:44:13.469Z,61.40
2017-06-22T21:46:42.493Z,59.30
2017-06-22T21:49:10.747Z,59.20
2017-06-22T21:51:39.885Z,58.60
2017-06-22T21:54:08.165Z,58.60
2017-06-22T21:56:36.437Z,57.70
2017-06-22T21:59:04.768Z,57.50
2017-06-22T22:01:33.798Z,56.10
2017-06-22T22:04:02.054Z,56.10
2017-06-22T22:06:30.324Z,56.30
2017-06-22T22:08:58.561Z,56.30
2017-06-22T22:11:26.809Z,55.40
2017-06-22T22:13:55.143Z,55.60
2017-06-22T22:16:24.148Z,55.90
2017-06-22T22:18:52.434Z,55.80
2017-06-22T22:21:20.680Z,55.50
2017-06-22T22:23:49.721Z,55.10
2017-06-22T22:26:18.035Z,55.10
2017-06-22T22:28:46.271Z,55.60
2017-06-22T22:31:14.587Z,55.30
2017-06-22T22:33:42.917Z,55.00
2017-06-22T22:36:11.164Z,55.10
2017-06-22T22:38:39.422Z,55.00
2017-06-22T22:41:08.437Z,55.00
2017-06-22T22:43:36.747Z,55.00
2017-06-22T22:46:04.990Z,54.60
2017-06-22T22:48:33.261Z,55.00
2017-06-22T22:51:01.518Z,54.70
2017-06-22T22:53:30.570Z,54.50
2017-06-22T22:55:58.876Z,54.50
2017-06-22T22:58:27.132Z,53.80
2017-06-22T23:00:55.386Z,52.80
2017-06-22T23:03:23.641Z,53.60
2017-06-22T23:05:51.888Z,53.40
2017-06-22T23:08:20.926Z,52.70
2017-06-22T23:10:49.161Z,52.70
2017-06-22T23:13:18.196Z,53.20
2017-06-22T23:15:46.458Z,53.10
2017-06-22T23:18:14.704Z,53.20
2017-06-22T23:20:43.728Z,53.30
2017-06-22T23:23:11.977Z,53.20
2017-06-22T23:25:40.236Z,52.80
2017-06-22T23:28:09.240Z,50.10
2017-06-22T23:30:38.379Z,50.50
2017-06-22T23:33:06.617Z,50.50
2017-06-22T23:35:34.925Z,50.80
2017-06-22T23:38:03.217Z,50.10
2017-06-22T23:40:31.579Z,50.20
2017-06-22T23:42:59.830Z,50.30
2017-06-22T23:45:28.101Z,50.10
2017-06-22T23:47:56.349Z,49.10
2017-06-22T23:50:24.605Z,49.40
2017-06-22T23:52:52.930Z,49.10
2017-06-22T23:55:21.196Z,49.10
2017-06-22T23:57:50.201Z,49.60
